Terminal Aerodrome Forecast
Issued by NWS Blacksburg, VA

Home | Current Version | Previous Version | Text Only | Print | Product List | Glossary On
Versions: 1 2 3 4 5 6 7 8 9 10 11 12 13 14 15 16 17 18 19 20 21 22 23 24 25 26 27 28 29 30 31
000
FTUS41 KRNK 281128
TAFDAN
TAF
KDAN 281128Z 2812/2912 00000KT 3SM BR SCT120
     FM281300 VRB03KT P6SM SCT120
     FM281500 17005KT P6SM BKN045 BKN120
     FM281900 19006KT P6SM VCTS BKN045CB BKN110
     FM290300 VRB03KT P6SM VCSH SCT040 BKN100 BKN250
     FM290800 00000KT 5SM BR OVC025=

USA.gov is the U.S. government's official web portal to all federal, state and local government web resources and services.